createdAt,value
2019-04-16T00:00:46.580Z,18.07
2019-04-16T00:03:15.287Z,16.95
2019-04-16T00:05:48.306Z,17.27
2019-04-16T00:08:27.578Z,17.02
2019-04-16T00:10:53.521Z,17.77
2019-04-16T00:13:26.573Z,17.77
2019-04-16T00:15:55.156Z,18.07
2019-04-16T00:18:23.706Z,17.23
2019-04-16T00:21:06.508Z,18.75
2019-04-16T00:23:53.805Z,16.82
2019-04-16T00:26:26.547Z,18.42
2019-04-16T00:28:52.601Z,17.73
2019-04-16T00:31:21.191Z,17.15
2019-04-16T00:33:49.741Z,17.50
2019-04-16T00:36:18.803Z,17.67
2019-04-16T00:38:47.402Z,18.12
2019-04-16T00:41:15.976Z,18.00
2019-04-16T00:43:44.555Z,18.17
2019-04-16T00:46:13.203Z,17.67
2019-04-16T00:48:41.772Z,18.40
2019-04-16T00:51:10.502Z,18.23
2019-04-16T00:53:39.664Z,17.70
2019-04-16T00:56:09.271Z,17.73
2019-04-16T00:58:37.889Z,18.55
2019-04-16T01:01:06.569Z,18.57
2019-04-16T01:03:35.137Z,17.48
2019-04-16T01:06:06.979Z,17.12
2019-04-16T01:08:33.986Z,17.62
2019-04-16T01:11:02.762Z,18.05
2019-04-16T01:13:31.339Z,16.93
2019-04-16T01:16:02.499Z,16.62
2019-04-16T01:18:30.125Z,16.97
2019-04-16T01:20:58.722Z,17.30
2019-04-16T01:23:27.284Z,17.00
2019-04-16T01:25:56.248Z,15.53
2019-04-16T01:28:42.633Z,16.57
2019-04-16T01:31:15.602Z,15.70
2019-04-16T01:33:46.745Z,16.05
2019-04-16T01:36:34.096Z,15.60
2019-04-16T01:39:15.948Z,16.45
2019-04-16T01:41:34.529Z,15.27
2019-04-16T01:44:03.166Z,17.02
2019-04-16T01:46:32.963Z,16.82
2019-04-16T01:49:02.280Z,16.40
2019-04-16T01:51:30.791Z,16.73
2019-04-16T01:53:59.370Z,15.68
2019-04-16T01:56:28.887Z,16.57
2019-04-16T01:58:57.711Z,16.37
2019-04-16T02:01:26.294Z,16.07
2019-04-16T02:03:54.931Z,15.35
2019-04-16T02:06:26.056Z,16.67
2019-04-16T02:08:53.710Z,16.02
2019-04-16T02:11:22.353Z,16.32
2019-04-16T02:13:50.910Z,15.80
2019-04-16T02:16:19.414Z,16.90
2019-04-16T02:18:47.966Z,16.48
2019-04-16T02:21:16.551Z,16.65
2019-04-16T02:23:45.364Z,15.35
2019-04-16T02:26:15.303Z,15.75
2019-04-16T02:28:44.123Z,17.00
2019-04-16T02:31:15.736Z,16.25
2019-04-16T02:33:42.920Z,15.85
2019-04-16T02:36:11.502Z,16.90
2019-04-16T02:38:46.278Z,16.67
2019-04-16T02:41:10.271Z,16.15
2019-04-16T02:43:41.061Z,16.77
2019-04-16T02:46:09.093Z,16.45
2019-04-16T02:48:37.642Z,17.30
2019-04-16T02:51:19.513Z,16.15
2019-04-16T02:53:54.495Z,15.28
2019-04-16T02:56:41.009Z,16.73
2019-04-16T02:59:14.157Z,16.35
2019-04-16T03:01:49.406Z,17.20
2019-04-16T03:04:28.330Z,16.45
2019-04-16T03:06:56.915Z,18.27
2019-04-16T03:09:25.479Z,16.42
2019-04-16T03:11:54.050Z,16.12
2019-04-16T03:14:22.852Z,17.85
2019-04-16T03:16:55.777Z,15.88
2019-04-16T03:19:26.005Z,16.10
2019-04-16T03:21:55.774Z,16.48
2019-04-16T03:24:24.831Z,15.85
2019-04-16T03:26:53.382Z,17.62
2019-04-16T03:29:22.040Z,15.40
2019-04-16T03:31:57.556Z,15.85
2019-04-16T03:34:22.074Z,17.00
2019-04-16T03:36:51.825Z,16.42
2019-04-16T03:39:20.412Z,16.87
2019-04-16T03:41:49.043Z,15.15
2019-04-16T03:44:17.623Z,17.37
2019-04-16T03:46:47.457Z,15.78
2019-04-16T03:49:16.585Z,16.55
2019-04-16T03:51:45.276Z,18.45
2019-04-16T03:54:13.853Z,17.75
2019-04-16T03:56:42.336Z,17.17
2019-04-16T03:59:12.036Z,17.05
2019-04-16T04:01:45.561Z,15.58
2019-04-16T04:04:11.394Z,17.05
2019-04-16T04:06:40.633Z,16.15
2019-04-16T04:09:09.427Z,17.15
2019-04-16T04:11:40.838Z,17.00
2019-04-16T04:14:08.131Z,16.95
2019-04-16T04:16:36.694Z,17.32
2019-04-16T04:19:05.352Z,16.70
2019-04-16T04:21:33.901Z,16.25
2019-04-16T04:24:02.396Z,17.42
2019-04-16T04:26:30.877Z,16.70
2019-04-16T04:28:59.386Z,17.80
2019-04-16T04:31:32.123Z,18.45
2019-04-16T04:33:58.179Z,17.62
2019-04-16T04:36:28.125Z,17.07
2019-04-16T04:38:57.017Z,17.67
2019-04-16T04:41:25.633Z,16.60
2019-04-16T04:43:54.207Z,17.57
2019-04-16T04:46:22.768Z,17.17
2019-04-16T04:48:54.988Z,17.75
2019-04-16T04:51:21.541Z,17.90
2019-04-16T04:53:51.234Z,18.62
2019-04-16T04:56:20.092Z,17.23
2019-04-16T04:58:48.927Z,17.02
2019-04-16T05:01:17.504Z,17.07
2019-04-16T05:04:02.877Z,15.78
2019-04-16T05:06:33.538Z,15.93
2019-04-16T05:09:02.098Z,16.52
2019-04-16T05:11:30.687Z,16.35
2019-04-16T05:13:59.241Z,17.12
2019-04-16T05:16:27.829Z,15.65
2019-04-16T05:18:56.390Z,14.78
2019-04-16T05:21:24.985Z,15.72
2019-04-16T05:23:56.786Z,16.50
2019-04-16T05:26:23.802Z,16.20
2019-04-16T05:28:52.353Z,16.70
2019-04-16T05:31:24.183Z,17.32
2019-04-16T05:33:51.118Z,15.98
2019-04-16T05:36:21.562Z,17.27
2019-04-16T05:38:49.926Z,15.93
2019-04-16T05:41:22.300Z,15.45
2019-04-16T05:43:48.740Z,16.67
2019-04-16T05:46:17.395Z,17.20
2019-04-16T05:48:45.983Z,17.05
2019-04-16T05:51:14.541Z,16.57
2019-04-16T05:53:44.749Z,16.45
2019-04-16T05:56:15.018Z,16.40
2019-04-16T05:58:43.599Z,16.60
2019-04-16T06:01:14.376Z,16.05
2019-04-16T06:03:43.275Z,16.32
2019-04-16T06:06:11.861Z,16.05
2019-04-16T06:08:41.593Z,16.27
2019-04-16T06:11:10.311Z,16.65
2019-04-16T06:13:52.330Z,16.52
2019-04-16T06:16:30.908Z,16.97
2019-04-16T06:19:00.126Z,16.75
2019-04-16T06:21:30.335Z,17.80
2019-04-16T06:24:15.086Z,17.30
2019-04-16T06:26:47.511Z,17.42
2019-04-16T06:29:17.563Z,17.67
2019-04-16T06:31:48.366Z,16.73
2019-04-16T06:34:27.666Z,17.35
2019-04-16T06:37:00.379Z,17.32
2019-04-16T06:42:27.914Z,20.17
2019-04-16T06:44:58.102Z,18.48
2019-04-16T06:47:43.741Z,19.42
2019-04-16T06:50:30.630Z,18.02
2019-04-16T06:53:03.715Z,16.67
2019-04-16T06:55:36.762Z,17.92
2019-04-16T06:58:07.124Z,18.20
2019-04-16T07:00:52.652Z,16.12
2019-04-16T07:03:26.055Z,16.57
2019-04-16T07:06:03.675Z,17.20
2019-04-16T07:08:41.820Z,18.30
2019-04-16T07:11:10.596Z,17.12
2019-04-16T07:13:41.919Z,17.40
2019-04-16T07:16:09.425Z,17.95
2019-04-16T07:18:38.735Z,17.62
2019-04-16T07:21:07.865Z,16.97
2019-04-16T07:23:36.413Z,17.17
2019-04-16T07:26:05.047Z,17.23
2019-04-16T07:28:41.247Z,16.93
2019-04-16T07:31:32.815Z,17.32
2019-04-16T07:34:04.156Z,17.85
2019-04-16T07:36:34.393Z,17.65
2019-04-16T07:39:28.278Z,17.23
2019-04-16T07:41:51.354Z,16.82
2019-04-16T07:44:21.640Z,17.02
2019-04-16T07:46:56.332Z,17.10
2019-04-16T07:49:29.603Z,17.32
2019-04-16T07:51:59.909Z,17.62
2019-04-16T07:54:47.006Z,18.00
2019-04-16T07:57:17.897Z,17.80
2019-04-16T07:59:56.995Z,18.12
2019-04-16T08:02:27.199Z,17.77
2019-04-16T08:18:00.892Z,17.42
2019-04-16T08:20:29.518Z,17.27
2019-04-16T08:22:59.772Z,17.32
2019-04-16T08:25:33.727Z,18.02
2019-04-16T08:28:00.236Z,16.87
2019-04-16T08:30:34.100Z,16.93
2019-04-16T08:32:59.126Z,17.20
2019-04-16T08:35:29.358Z,18.07
2019-04-16T08:37:58.856Z,18.80
2019-04-16T08:40:27.635Z,17.82
2019-04-16T08:42:57.308Z,18.02
2019-04-16T08:45:26.579Z,18.12
2019-04-16T08:47:55.208Z,18.67
2019-04-16T08:50:26.111Z,18.60
2019-04-16T08:52:54.011Z,18.25
2019-04-16T08:55:23.582Z,19.98
2019-04-16T08:57:52.777Z,18.85
2019-04-16T09:00:21.418Z,18.17
2019-04-16T09:02:50.041Z,18.62
2019-04-16T09:05:18.598Z,18.35
2019-04-16T09:07:50.686Z,19.17
2019-04-16T09:10:30.087Z,18.10
2019-04-16T09:13:03.796Z,18.07
2019-04-16T09:15:29.139Z,19.40
2019-04-16T09:17:59.369Z,17.65
2019-04-16T09:20:29.727Z,18.25
2019-04-16T09:22:59.270Z,18.85
2019-04-16T09:25:38.218Z,18.52
2019-04-16T09:28:23.794Z,19.48
2019-04-16T09:30:40.318Z,19.10
2019-04-16T09:33:16.131Z,18.62
2019-04-16T09:36:01.303Z,19.40
2019-04-16T09:38:47.628Z,19.73
2019-04-16T09:41:23.449Z,18.67
2019-04-16T09:43:57.868Z,19.55
2019-04-16T09:46:48.816Z,18.65
2019-04-16T09:48:56.977Z,19.37
2019-04-16T09:51:26.335Z,19.00
2019-04-16T09:53:55.541Z,18.60
2019-04-16T09:56:31.371Z,18.73
2019-04-16T09:59:02.863Z,19.37
2019-04-16T10:01:45.229Z,20.10
2019-04-16T10:04:18.395Z,18.77
2019-04-16T10:06:46.972Z,19.20
2019-04-16T10:09:19.746Z,19.35
2019-04-16T10:11:45.863Z,18.67
2019-04-16T10:14:14.448Z,18.82
2019-04-16T10:16:43.119Z,18.90
2019-04-16T10:19:11.748Z,18.35
2019-04-16T10:21:41.202Z,18.50
2019-04-16T10:24:27.718Z,17.52
2019-04-16T10:27:00.002Z,17.27
2019-04-16T10:29:28.191Z,17.03
2019-04-16T10:31:57.001Z,17.73
2019-04-16T10:34:25.673Z,18.23
2019-04-16T10:36:54.212Z,18.25
2019-04-16T10:39:30.070Z,17.67
2019-04-16T10:42:18.599Z,16.15
2019-04-16T10:44:57.594Z,15.55
2019-04-16T10:47:36.726Z,18.10
2019-04-16T10:50:22.583Z,18.02
2019-04-16T10:53:09.383Z,18.52
2019-04-16T10:55:42.979Z,17.52
2019-04-16T10:58:16.374Z,16.10
2019-04-16T11:00:55.443Z,17.35
2019-04-16T11:03:28.519Z,16.77
2019-04-16T11:06:00.293Z,17.13
2019-04-16T11:08:28.829Z,15.63
2019-04-16T11:10:57.506Z,14.30
2019-04-16T11:13:39.772Z,14.87
2019-04-16T11:16:10.220Z,14.38
2019-04-16T11:18:38.834Z,14.07
2019-04-16T11:21:07.473Z,13.83
2019-04-16T11:23:36.278Z,13.80
2019-04-16T11:26:05.009Z,14.00
2019-04-16T11:28:33.570Z,13.85
2019-04-16T11:31:03.834Z,12.55
2019-04-16T11:33:32.363Z,13.85
2019-04-16T11:36:00.944Z,13.18
2019-04-16T11:38:29.540Z,12.03
2019-04-16T11:40:58.117Z,13.08
2019-04-16T11:43:26.660Z,12.35
2019-04-16T11:45:55.361Z,12.33
2019-04-16T11:48:23.889Z,12.40
2019-04-16T11:50:52.509Z,13.38
2019-04-16T11:53:21.078Z,13.53
2019-04-16T11:55:49.789Z,13.83
2019-04-16T11:58:25.807Z,13.62
2019-04-16T12:00:58.603Z,14.03
2019-04-16T12:03:28.834Z,12.18
2019-04-16T12:06:27.074Z,12.00
2019-04-16T12:08:47.407Z,12.85
2019-04-16T12:11:24.123Z,12.65
2019-04-16T12:13:54.319Z,12.88
2019-04-16T12:16:25.455Z,13.58
2019-04-16T12:18:55.791Z,13.72
2019-04-16T12:21:25.977Z,13.15
2019-04-16T12:24:12.680Z,14.70
2019-04-16T12:26:51.767Z,14.87
2019-04-16T12:29:24.723Z,13.45
2019-04-16T12:31:54.952Z,14.15
2019-04-16T12:34:34.123Z,13.20
2019-04-16T12:37:20.943Z,13.75
2019-04-16T12:39:51.166Z,13.78
2019-04-16T12:42:21.536Z,13.75
2019-04-16T12:44:51.699Z,13.90
2019-04-16T12:47:24.827Z,14.68
2019-04-16T12:49:58.013Z,16.10
2019-04-16T12:52:37.152Z,15.13
2019-04-16T12:55:11.578Z,14.33
2019-04-16T12:57:48.041Z,15.75
2019-04-16T13:02:04.350Z,15.25
2019-04-16T13:03:22.155Z,15.80
2019-04-16T13:06:09.164Z,13.95
2019-04-16T13:08:42.182Z,14.20
2019-04-16T13:11:28.633Z,13.88
2019-04-16T13:14:15.370Z,13.80
2019-04-16T13:16:45.570Z,14.60
2019-04-16T13:19:31.890Z,14.90
2019-04-16T13:22:00.951Z,14.58
2019-04-16T13:24:33.993Z,15.00
2019-04-16T13:27:09.912Z,14.47
2019-04-16T13:29:38.506Z,12.55
2019-04-16T13:32:07.103Z,14.05
2019-04-16T13:35:10.622Z,13.25
2019-04-16T13:40:13.472Z,14.30
2019-04-16T13:42:42.178Z,13.75
2019-04-16T13:45:27.337Z,13.62
2019-04-16T13:47:56.418Z,13.40
2019-04-16T13:50:26.610Z,13.50
2019-04-16T13:52:59.528Z,12.43
2019-04-16T13:55:32.652Z,15.03
2019-04-16T13:58:06.372Z,12.88
2019-04-16T14:00:37.129Z,11.85
2019-04-16T14:03:07.492Z,12.58
2019-04-16T14:05:38.438Z,12.78
2019-04-16T14:08:06.409Z,12.45
2019-04-16T14:10:35.167Z,12.28
2019-04-16T14:13:03.787Z,11.63
2019-04-16T14:15:38.980Z,12.60
2019-04-16T14:18:06.039Z,12.70
2019-04-16T14:20:34.686Z,11.83
2019-04-16T14:23:03.634Z,9.85
2019-04-16T14:25:32.343Z,9.25
2019-04-16T14:28:03.106Z,13.72
2019-04-16T14:30:33.217Z,14.93
2019-04-16T14:33:02.099Z,16.48
2019-04-16T14:35:33.913Z,16.30
2019-04-16T14:38:04.619Z,18.32
2019-04-16T14:40:33.319Z,17.70
2019-04-16T14:43:01.821Z,17.75
2019-04-16T14:45:53.517Z,17.35
2019-04-16T14:48:08.998Z,19.57
2019-04-16T14:50:37.428Z,18.48
2019-04-16T14:53:06.058Z,18.10
2019-04-16T14:55:36.299Z,17.27
2019-04-16T14:58:09.385Z,16.85
2019-04-16T15:00:55.917Z,16.85
2019-04-16T15:03:43.478Z,16.52
2019-04-16T15:18:08.209Z,17.12
2019-04-16T15:21:03.158Z,18.10
2019-04-16T15:23:45.211Z,18.62
2019-04-16T15:26:15.784Z,17.42
2019-04-16T15:28:49.116Z,17.35
2019-04-16T15:31:19.820Z,17.90
2019-04-16T15:33:50.173Z,18.12
2019-04-16T15:36:26.551Z,17.85
2019-04-16T15:39:02.459Z,17.45
2019-04-16T15:41:34.774Z,18.10
2019-04-16T15:44:23.668Z,18.60
2019-04-16T15:47:13.117Z,17.02
2019-04-16T15:49:55.620Z,16.23
2019-04-16T15:52:36.000Z,15.45
2019-04-16T15:57:41.350Z,13.55
2019-04-16T16:00:27.681Z,13.48
2019-04-16T16:03:07.004Z,13.53
2019-04-16T16:05:45.935Z,11.90
2019-04-16T16:08:30.540Z,10.70
2019-04-16T16:11:18.442Z,11.00
2019-04-16T16:13:47.131Z,9.68
2019-04-16T16:16:18.202Z,9.10
2019-04-16T16:18:45.975Z,8.70
2019-04-16T16:21:14.627Z,8.38
2019-04-16T16:23:43.263Z,8.28
2019-04-16T16:26:12.482Z,8.13
2019-04-16T16:28:40.978Z,9.13
2019-04-16T16:31:09.561Z,9.03
2019-04-16T16:33:38.125Z,8.88
2019-04-16T16:36:06.765Z,8.83
2019-04-16T16:38:35.333Z,10.00
2019-04-16T16:41:03.984Z,9.23
2019-04-16T16:43:32.550Z,9.73
2019-04-16T16:46:11.791Z,8.88
2019-04-16T16:48:40.429Z,9.40
2019-04-16T16:51:09.065Z,8.38
2019-04-16T16:53:39.271Z,8.30
2019-04-16T16:56:15.397Z,8.18
2019-04-16T16:59:01.521Z,8.05
2019-04-16T17:01:34.794Z,9.08
2019-04-16T17:04:15.905Z,8.08
2019-04-16T17:06:44.507Z,8.33
2019-04-16T17:09:14.711Z,10.40
2019-04-16T17:11:44.038Z,7.80
2019-04-16T17:14:12.647Z,9.50
2019-04-16T17:16:41.228Z,8.65
2019-04-16T17:19:09.832Z,8.03
2019-04-16T17:21:38.429Z,8.55
2019-04-16T17:24:06.994Z,9.65
2019-04-16T17:26:35.566Z,8.45
2019-04-16T17:29:04.229Z,9.18
2019-04-16T17:31:35.908Z,8.08
2019-04-16T17:34:03.087Z,7.92
2019-04-16T17:36:31.732Z,8.20
2019-04-16T17:39:00.332Z,8.00
2019-04-16T17:41:33.610Z,8.08
2019-04-16T17:44:12.546Z,8.18
2019-04-16T17:46:51.738Z,8.55
2019-04-16T17:49:36.802Z,8.48
2019-04-16T17:52:09.932Z,9.18
2019-04-16T17:54:56.630Z,9.73
2019-04-16T17:57:30.159Z,8.80
2019-04-16T18:00:04.560Z,8.20
2019-04-16T18:02:50.840Z,8.20
2019-04-16T18:05:27.116Z,8.80
2019-04-16T18:08:13.667Z,8.80
2019-04-16T18:10:43.869Z,8.95
2019-04-16T18:13:14.105Z,9.30
2019-04-16T18:15:44.259Z,9.25
2019-04-16T18:18:17.405Z,10.28
2019-04-16T18:20:57.427Z,9.80
2019-04-16T18:23:22.377Z,9.45
2019-04-16T18:25:56.535Z,9.00
2019-04-16T18:28:26.980Z,10.27
2019-04-16T18:31:02.798Z,10.75
2019-04-16T18:33:35.652Z,8.83
2019-04-16T18:38:35.353Z,9.70
2019-04-16T18:41:05.483Z,9.93
2019-04-16T18:43:44.604Z,10.63
2019-04-16T18:46:17.442Z,11.00
2019-04-16T18:51:24.033Z,9.68
2019-04-16T18:53:53.319Z,11.28
2019-04-16T18:56:22.184Z,11.05
2019-04-16T18:58:50.865Z,9.55
2019-04-16T19:01:24.620Z,9.35
2019-04-16T19:03:51.300Z,9.05
2019-04-16T19:06:20.425Z,8.65
2019-04-16T19:08:49.064Z,7.87
2019-04-16T19:11:20.346Z,8.83
2019-04-16T19:13:47.923Z,7.95
2019-04-16T19:16:16.490Z,7.58
2019-04-16T19:18:44.994Z,7.55
2019-04-16T19:21:13.937Z,7.65
2019-04-16T19:23:42.436Z,8.18
2019-04-16T19:26:10.913Z,7.42
2019-04-16T19:28:40.370Z,8.13
2019-04-16T19:31:09.058Z,8.83
2019-04-16T19:33:38.403Z,7.97
2019-04-16T19:36:07.301Z,8.28
2019-04-16T19:38:39.336Z,8.48
2019-04-16T19:41:06.081Z,8.70
2019-04-16T19:43:35.622Z,9.28
2019-04-16T19:46:04.465Z,9.10
2019-04-16T19:48:35.873Z,9.98
2019-04-16T19:51:03.344Z,15.15
2019-04-16T19:53:31.868Z,11.93
2019-04-16T19:56:00.462Z,11.20
2019-04-16T19:58:29.024Z,10.50
2019-04-16T20:00:59.030Z,11.63
2019-04-16T20:03:30.520Z,11.15
2019-04-16T20:05:58.008Z,11.22
2019-04-16T20:08:26.576Z,11.70
2019-04-16T20:10:55.244Z,11.18
2019-04-16T20:13:23.814Z,10.78
2019-04-16T20:15:52.420Z,11.15
2019-04-16T20:18:22.710Z,11.35
2019-04-16T20:20:51.285Z,11.90
2019-04-16T20:23:19.853Z,11.63
2019-04-16T20:25:48.433Z,10.88
2019-04-16T20:28:16.994Z,10.03
2019-04-16T20:30:45.569Z,9.98
2019-04-16T20:33:14.138Z,10.00
2019-04-16T20:35:42.730Z,11.70
2019-04-16T20:38:11.284Z,12.00
2019-04-16T20:40:39.784Z,9.88
2019-04-16T20:43:08.337Z,9.60
2019-04-16T20:45:37.050Z,9.60
2019-04-16T20:48:05.647Z,9.90
2019-04-16T20:50:34.270Z,10.38
2019-04-16T20:53:06.208Z,10.65
2019-04-16T20:55:33.054Z,10.60
2019-04-16T20:58:01.542Z,11.60
2019-04-16T21:00:42.262Z,13.32
2019-04-16T21:03:21.541Z,13.62
2019-04-16T21:05:37.923Z,13.62
2019-04-16T21:08:06.628Z,12.73
2019-04-16T21:10:36.312Z,12.45
2019-04-16T21:13:05.757Z,12.25
2019-04-16T21:15:34.297Z,13.15
2019-04-16T21:18:02.866Z,13.08
2019-04-16T21:20:31.508Z,13.18
2019-04-16T21:23:02.000Z,13.13
2019-04-16T21:25:30.238Z,13.90
2019-04-16T21:28:15.245Z,14.07
2019-04-16T21:30:44.798Z,14.53
2019-04-16T21:33:27.014Z,14.78
2019-04-16T21:36:03.096Z,13.90
2019-04-16T21:38:31.450Z,14.15
2019-04-16T21:41:00.007Z,13.50
2019-04-16T21:43:28.508Z,15.00
2019-04-16T21:45:57.085Z,13.93
2019-04-16T21:48:27.078Z,13.15
2019-04-16T21:50:55.805Z,13.93
2019-04-16T21:53:24.616Z,14.00
2019-04-16T21:55:54.534Z,15.60
2019-04-16T21:58:23.118Z,14.47
2019-04-16T22:00:54.030Z,16.02
2019-04-16T22:03:24.257Z,15.53
2019-04-16T22:05:52.833Z,14.93
2019-04-16T22:08:21.421Z,15.20
2019-04-16T22:10:49.981Z,16.40
2019-04-16T22:13:19.476Z,16.00
2019-04-16T22:15:48.642Z,16.15
2019-04-16T22:18:17.222Z,16.20
2019-04-16T22:20:45.789Z,16.60
2019-04-16T22:23:18.996Z,16.55
2019-04-16T22:25:44.582Z,16.55
2019-04-16T22:28:13.193Z,15.50
2019-04-16T22:30:41.746Z,16.02
2019-04-16T22:33:10.338Z,16.17
2019-04-16T22:35:38.908Z,15.75
2019-04-16T22:38:10.316Z,15.93
2019-04-16T22:40:45.409Z,16.10
2019-04-16T22:43:15.561Z,16.52
2019-04-16T22:45:51.983Z,17.10
2019-04-16T22:48:18.702Z,17.07
2019-04-16T22:50:47.272Z,16.30
2019-04-16T22:53:17.343Z,16.48
2019-04-16T22:55:46.251Z,15.70
2019-04-16T22:58:24.186Z,17.45
2019-04-16T23:00:55.119Z,15.15
2019-04-16T23:03:23.703Z,16.90
2019-04-16T23:05:52.273Z,16.37
2019-04-16T23:08:20.850Z,16.45
2019-04-16T23:10:51.764Z,16.65
2019-04-16T23:13:20.013Z,16.87
2019-04-16T23:15:48.586Z,16.42
2019-04-16T23:18:18.243Z,15.98
2019-04-16T23:20:46.837Z,17.35
2019-04-16T23:23:18.042Z,16.00
2019-04-16T23:25:45.636Z,16.10
2019-04-16T23:28:14.228Z,17.25
2019-04-16T23:30:42.787Z,18.25
2019-04-16T23:33:11.365Z,17.07
2019-04-16T23:35:44.308Z,17.02
2019-04-16T23:38:10.178Z,19.00
2019-04-16T23:40:40.746Z,17.42
2019-04-16T23:43:25.630Z,17.42
2019-04-16T23:45:55.845Z,16.80
2019-04-16T23:48:28.258Z,17.07
2019-04-16T23:51:09.553Z,18.07
2019-04-16T23:53:58.267Z,18.87
2019-04-16T23:56:34.635Z,18.23
2019-04-16T23:59:19.866Z,18.12
